Time;durP1;ratioP1;P1;durP2;ratioP2;P2;SDS_P1;SDS_P2;PMS_P1;PMS_P2;Temp;Humidity;BMP_temperature;BMP_pressure;BME280_temperature;BME280_humidity;BME280_pressure;Samples;Min_cycle;Max_cycle;Signal;HPM_P1;HPM_P2
2022/10/30 00:01:08;;;;;;;;;;;;;;;;;;4935186;29;7037;-86
2022/10/30 00:03:33;;;;;;;;;;;;;;;;;;4927661;29;7183;-87
2022/10/30 00:06:03;;;;;;;;;;;;;;;;;;4928171;29;7296;-87
2022/10/30 00:08:28;;;;;;;;;;;;;;;;;;4929351;29;7046;-86
2022/10/30 00:10:53;;;;;;;;;;;;;;;;;;4925329;29;8491;-86
2022/10/30 00:13:20;;;;;;;;;;;;;;;;;;4928191;29;7130;-88
2022/10/30 00:15:50;;;;;;;;;;;;;;;;;;4926900;29;8646;-85
2022/10/30 00:18:16;;;;;;;;;;;;;;;;;;4926142;29;7059;-84
2022/10/30 00:20:41;;;;;;;;;;;;;;;;;;4928752;28;7062;-84
2022/10/30 00:23:07;;;;;;;;;;;;;;;;;;4934364;28;8438;-87
2022/10/30 00:25:34;;;;;;;;;;;;;;;;;;4924758;28;7352;-87
2022/10/30 00:28:01;;;;;;;;;;;;;;;;;;4929645;28;7188;-87
2022/10/30 00:30:26;;;;;;;;;;;;;;;;;;4932903;28;8456;-86
2022/10/30 00:32:51;;;;;;;;;;;;;;;;;;4928801;28;7101;-87
2022/10/30 00:35:17;;;;;;;;;;;;;;;;;;4936918;28;7404;-86
2022/10/30 00:37:42;;;;;;;;;;;;;;;;;;4924579;28;8655;-87
2022/10/30 00:40:13;;;;;;;;;;;;;;;;;;4924763;28;7023;-86
2022/10/30 00:42:38;;;;;;;;;;;;;;;;;;4927982;28;7033;-87
2022/10/30 00:45:04;;;;;;;;;;;;;;;;;;4933012;28;7170;-86
2022/10/30 00:47:33;;;;;;;;;;;;;;;;;;4930478;28;8382;-86
2022/10/30 00:50:02;;;;;;;;;;;;;;;;;;4931374;28;8405;-88
2022/10/30 00:52:31;;;;;;;;;;;;;;;;;;4954502;28;8438;-88
2022/10/30 00:55:01;;;;;;;;;;;;;;;;;;4942519;28;8413;-87
2022/10/30 00:57:27;;;;;;;;;;;;;;;;;;4941691;28;7410;-88
2022/10/30 00:59:53;;;;;;;;;;;;;;;;;;4942425;28;7021;-86
2022/10/30 01:02:20;;;;;;;;;;;;;;;;;;4941868;28;7249;-87
2022/10/30 01:04:48;;;;;;;;;;;;;;;;;;4941821;28;8531;-87
2022/10/30 01:07:16;;;;;;;;;;;;;;;;;;4942214;28;7076;-87
2022/10/30 01:09:42;;;;;;;;;;;;;;;;;;4941641;28;7403;-86
2022/10/30 01:12:08;;;;;;;;;;;;;;;;;;4941735;28;7048;-86
2022/10/30 01:14:36;;;;;;;;;;;;;;;;;;4942675;28;7171;-88
2022/10/30 01:17:11;;;;;;;;;;;;;;;;;;4941552;28;7029;-87
2022/10/30 01:19:42;;;;;;;;;;;;;;;;;;4957363;28;7222;-88
2022/10/30 01:22:26;;;;;;;;;;;;;;;;;;4957752;28;8674;-86
2022/10/30 01:24:58;;;;;;;;;;;;;;;;;;4942654;28;7253;-86
2022/10/30 01:27:26;;;;;;;;;;;;;;;;;;4959161;28;7136;-86
2022/10/30 01:29:52;;;;;;;;;;;;;;;;;;4957583;28;7766;-86
2022/10/30 01:32:17;;;;;;;;;;;;;;;;;;4957334;28;8400;-87
2022/10/30 01:34:49;;;;;;;;;;;;;;;;;;4957557;28;8761;-87
2022/10/30 01:37:38;;;;;;;;;;;;;;;;;;4957438;28;7017;-87
2022/10/30 01:40:15;;;;;;;;;;;;;;;;;;4941508;28;7445;-86
2022/10/30 01:42:47;;;;;;;;;;;;;;;;;;4941440;28;7184;-86
2022/10/30 01:45:16;;;;;;;;;;;;;;;;;;4941478;28;7439;-85
2022/10/30 01:47:51;;;;;;;;;;;;;;;;;;4957795;28;7030;-87
2022/10/30 01:50:45;;;;;;;;;;;;;;;;;;4941528;28;6856;-88
2022/10/30 01:53:23;;;;;;;;;;;;;;;;;;4873571;28;8425;-85
2022/10/30 01:56:07;;;;;;;;;;;;;;;;;;4941025;28;8426;-86
2022/10/30 01:58:42;;;;;;;;;;;;;;;;;;4957319;28;7053;-86
2022/10/30 02:01:09;;;;;;;;;;;;;;;;;;4941780;28;8438;-87
2022/10/30 02:03:35;;;;;;;;;;;;;;;;;;4941102;28;8457;-89
2022/10/30 02:06:01;;;;;;;;;;;;;;;;;;4940835;28;7029;-88
2022/10/30 02:08:26;;;;;;;;;;;;;;;;;;4940882;28;8357;-86
2022/10/30 02:10:53;;;;;;;;;;;;;;;;;;4940991;28;6995;-86
2022/10/30 02:13:19;;;;;;;;;;;;;;;;;;4941331;28;7155;-86
2022/10/30 02:15:47;;;;;;;;;;;;;;;;;;4940704;28;8513;-86
2022/10/30 02:18:12;;;;;;;;;;;;;;;;;;4940484;28;7007;-86
2022/10/30 02:20:38;;;;;;;;;;;;;;;;;;4941002;28;7242;-85
2022/10/30 02:23:05;;;;;;;;;;;;;;;;;;4940895;28;7420;-86
2022/10/30 02:25:31;;;;;;;;;;;;;;;;;;4941343;28;7116;-85
2022/10/30 02:27:56;;;;;;;;;;;;;;;;;;4940574;28;8391;-86
2022/10/30 02:30:22;;;;;;;;;;;;;;;;;;4940594;28;8385;-85
2022/10/30 02:32:48;;;;;;;;;;;;;;;;;;4940412;28;7153;-87
2022/10/30 02:35:13;;;;;;;;;;;;;;;;;;4940475;28;8496;-86
2022/10/30 02:37:39;;;;;;;;;;;;;;;;;;4940754;28;8596;-86
2022/10/30 02:40:07;;;;;;;;;;;;;;;;;;4940316;28;8453;-88
2022/10/30 02:42:33;;;;;;;;;;;;;;;;;;4940442;28;7089;-86
2022/10/30 02:44:58;;;;;;;;;;;;;;;;;;4939401;28;8408;-87
2022/10/30 02:47:24;;;;;;;;;;;;;;;;;;4940371;28;6832;-86
2022/10/30 02:49:49;;;;;;;;;;;;;;;;;;4940505;28;8206;-87
2022/10/30 02:52:15;;;;;;;;;;;;;;;;;;4940098;28;7029;-86
2022/10/30 02:54:40;;;;;;;;;;;;;;;;;;4940527;28;7017;-86
2022/10/30 02:57:06;;;;;;;;;;;;;;;;;;4939971;28;7127;-87
2022/10/30 02:59:31;;;;;;;;;;;;;;;;;;4940155;28;8751;-86
2022/10/30 03:01:56;;;;;;;;;;;;;;;;;;4939904;28;8655;-86
2022/10/30 03:04:22;;;;;;;;;;;;;;;;;;4940217;28;8424;-86
2022/10/30 03:06:47;;;;;;;;;;;;;;;;;;4940242;28;7277;-86
2022/10/30 03:09:13;;;;;;;;;;;;;;;;;;4931407;29;8717;-87
2022/10/30 03:11:38;;;;;;;;;;;;;;;;;;4928648;29;8894;-86
2022/10/30 03:14:04;;;;;;;;;;;;;;;;;;4930969;28;7010;-86
2022/10/30 03:16:30;;;;;;;;;;;;;;;;;;4929378;29;7431;-87
2022/10/30 03:18:57;;;;;;;;;;;;;;;;;;4928814;28;8590;-87
2022/10/30 03:21:24;;;;;;;;;;;;;;;;;;4928279;29;8362;-86
2022/10/30 03:23:50;;;;;;;;;;;;;;;;;;4920674;29;8442;-86
2022/10/30 03:26:16;;;;;;;;;;;;;;;;;;4920290;29;7288;-86
2022/10/30 03:28:42;;;;;;;;;;;;;;;;;;4920320;29;8485;-86
2022/10/30 03:31:09;;;;;;;;;;;;;;;;;;4920138;29;8486;-87
2022/10/30 03:33:36;;;;;;;;;;;;;;;;;;4920922;29;7139;-85
2022/10/30 03:36:03;;;;;;;;;;;;;;;;;;4920724;29;7091;-86
2022/10/30 03:38:29;;;;;;;;;;;;;;;;;;4920421;29;8339;-87
2022/10/30 03:40:54;;;;;;;;;;;;;;;;;;4921114;29;8313;-86
2022/10/30 03:43:20;;;;;;;;;;;;;;;;;;4920780;29;7120;-87
2022/10/30 03:45:47;;;;;;;;;;;;;;;;;;4920769;29;8330;-87
2022/10/30 03:48:13;;;;;;;;;;;;;;;;;;4920631;29;7001;-86
2022/10/30 03:50:38;;;;;;;;;;;;;;;;;;4920542;29;8410;-85
2022/10/30 03:53:03;;;;;;;;;;;;;;;;;;4920279;29;8417;-86
2022/10/30 03:55:29;;;;;;;;;;;;;;;;;;4921605;29;8607;-86
2022/10/30 03:57:54;;;;;;;;;;;;;;;;;;4924263;29;8810;-86
2022/10/30 04:00:20;;;;;;;;;;;;;;;;;;4924568;29;7147;-84
2022/10/30 04:02:50;;;;;;;;;;;;;;;;;;4924458;29;7056;-86
2022/10/30 04:05:17;;;;;;;;;;;;;;;;;;4931902;28;8559;-86
2022/10/30 04:07:43;;;;;;;;;;;;;;;;;;4943286;28;7223;-86
2022/10/30 04:10:09;;;;;;;;;;;;;;;;;;4943216;28;8395;-88
2022/10/30 04:12:34;;;;;;;;;;;;;;;;;;4943303;28;7366;-86
2022/10/30 04:15:00;;;;;;;;;;;;;;;;;;4942476;28;8497;-87
2022/10/30 04:17:25;;;;;;;;;;;;;;;;;;4943176;28;7211;-86
2022/10/30 04:19:51;;;;;;;;;;;;;;;;;;4943255;28;8446;-88
2022/10/30 04:22:16;;;;;;;;;;;;;;;;;;4943121;28;8411;-88
2022/10/30 04:24:42;;;;;;;;;;;;;;;;;;4943121;28;6979;-84
2022/10/30 04:27:07;;;;;;;;;;;;;;;;;;4943034;28;7155;-87
2022/10/30 04:29:32;;;;;;;;;;;;;;;;;;4943116;28;8297;-85
2022/10/30 04:31:58;;;;;;;;;;;;;;;;;;4945288;28;7152;-87
2022/10/30 04:34:23;;;;;;;;;;;;;;;;;;4946972;28;7154;-84
2022/10/30 04:36:49;;;;;;;;;;;;;;;;;;4945613;28;8490;-86
2022/10/30 04:39:14;;;;;;;;;;;;;;;;;;4940816;28;6966;-86
2022/10/30 04:41:39;;;;;;;;;;;;;;;;;;4941404;28;7047;-87
2022/10/30 04:44:05;;;;;;;;;;;;;;;;;;4942461;28;8399;-85
2022/10/30 04:46:31;;;;;;;;;;;;;;;;;;4941333;28;7240;-85
2022/10/30 04:48:57;;;;;;;;;;;;;;;;;;4942100;28;7028;-84
2022/10/30 04:51:23;;;;;;;;;;;;;;;;;;4943225;28;6991;-87
2022/10/30 04:53:49;;;;;;;;;;;;;;;;;;4942019;28;8510;-86
2022/10/30 04:56:15;;;;;;;;;;;;;;;;;;4942099;28;7035;-86
2022/10/30 04:58:41;;;;;;;;;;;;;;;;;;4941987;28;7184;-87
2022/10/30 05:01:07;;;;;;;;;;;;;;;;;;4942265;28;8482;-86
2022/10/30 05:03:33;;;;;;;;;;;;;;;;;;4942307;28;6880;-87
2022/10/30 05:06:01;;;;;;;;;;;;;;;;;;4941856;28;7430;-87
2022/10/30 05:08:27;;;;;;;;;;;;;;;;;;4940869;28;8438;-87
2022/10/30 05:10:52;;;;;;;;;;;;;;;;;;4941658;28;7155;-86
2022/10/30 05:13:19;;;;;;;;;;;;;;;;;;4931857;28;7024;-86
2022/10/30 05:15:46;;;;;;;;;;;;;;;;;;4940698;28;7183;-81
2022/10/30 05:18:11;;;;;;;;;;;;;;;;;;4919253;29;7069;-87
2022/10/30 05:20:37;;;;;;;;;;;;;;;;;;4910510;29;8383;-81
2022/10/30 05:23:03;;;;;;;;;;;;;;;;;;4915202;29;7212;-87
2022/10/30 05:25:29;;;;;;;;;;;;;;;;;;4917353;28;8587;-88
2022/10/30 05:28:02;;;;;;;;;;;;;;;;;;4932665;29;7090;-87
2022/10/30 05:30:29;;;;;;;;;;;;;;;;;;4922986;29;7030;-85
2022/10/30 05:32:59;;;;;;;;;;;;;;;;;;4918963;29;6839;-86
2022/10/30 05:40:15;;;;;;;;;;;;;;;;;;4921237;29;6797;-87
2022/10/30 05:42:44;;;;;;;;;;;;;;;;;;4921810;29;7151;-87
2022/10/30 05:45:10;;;;;;;;;;;;;;;;;;4921854;29;7176;-87
2022/10/30 05:47:35;;;;;;;;;;;;;;;;;;4921446;29;8461;-84
2022/10/30 05:50:01;;;;;;;;;;;;;;;;;;4921903;29;7218;-84
2022/10/30 05:52:28;;;;;;;;;;;;;;;;;;4921778;29;7028;-84
2022/10/30 05:54:53;;;;;;;;;;;;;;;;;;4922199;29;8449;-84
2022/10/30 05:57:18;;;;;;;;;;;;;;;;;;4921655;29;8403;-83
2022/10/30 05:59:44;;;;;;;;;;;;;;;;;;4922055;29;7241;-83
2022/10/30 06:02:09;;;;;;;;;;;;;;;;;;4921577;29;8671;-84
2022/10/30 06:04:35;;;;;;;;;;;;;;;;;;4922066;29;8625;-83
2022/10/30 06:07:00;;;;;;;;;;;;;;;;;;4921420;29;8310;-84
2022/10/30 06:09:26;;;;;;;;;;;;;;;;;;4921539;29;8499;-82
2022/10/30 06:11:52;;;;;;;;;;;;;;;;;;4920801;29;6827;-82
2022/10/30 06:14:17;;;;;;;;;;;;;;;;;;4921793;29;7160;-82
2022/10/30 06:16:43;;;;;;;;;;;;;;;;;;4921506;29;9407;-80
2022/10/30 06:19:08;;;;;;;;;;;;;;;;;;4921078;29;8356;-82
2022/10/30 06:21:34;;;;;;;;;;;;;;;;;;4921610;29;8411;-83
2022/10/30 06:23:59;;;;;;;;;;;;;;;;;;4921444;29;8664;-83
2022/10/30 06:26:24;;;;;;;;;;;;;;;;;;4921392;29;6962;-83
2022/10/30 06:28:50;;;;;;;;;;;;;;;;;;4921056;29;8396;-83
2022/10/30 06:31:15;;;;;;;;;;;;;;;;;;4920808;29;8615;-81
2022/10/30 06:33:41;;;;;;;;;;;;;;;;;;4921124;29;7032;-82
2022/10/30 06:36:06;;;;;;;;;;;;;;;;;;4921349;29;8601;-82
2022/10/30 06:38:32;;;;;;;;;;;;;;;;;;4920954;29;8349;-83
2022/10/30 06:40:58;;;;;;;;;;;;;;;;;;4921121;29;7047;-81
2022/10/30 06:43:23;;;;;;;;;;;;;;;;;;4921100;29;9346;-82
2022/10/30 06:45:48;;;;;;;;;;;;;;;;;;4920833;29;8559;-81
2022/10/30 06:48:14;;;;;;;;;;;;;;;;;;4921026;29;8558;-83
2022/10/30 06:50:39;;;;;;;;;;;;;;;;;;4921106;29;7056;-83
2022/10/30 06:53:05;;;;;;;;;;;;;;;;;;4920655;29;8458;-82
2022/10/30 06:55:30;;;;;;;;;;;;;;;;;;4921221;29;7020;-82
2022/10/30 06:57:56;;;;;;;;;;;;;;;;;;4920765;29;8467;-82
2022/10/30 07:00:22;;;;;;;;;;;;;;;;;;4920918;29;7250;-82
2022/10/30 07:02:58;;;;;;;;;;;;;;;;;;4920604;29;8416;-84
2022/10/30 07:05:24;;;;;;;;;;;;;;;;;;4924363;29;7166;-82
2022/10/30 07:07:49;;;;;;;;;;;;;;;;;;4927140;29;8469;-81
2022/10/30 07:10:15;;;;;;;;;;;;;;;;;;4927312;29;8477;-81
2022/10/30 07:12:40;;;;;;;;;;;;;;;;;;4928813;29;7155;-82
2022/10/30 07:15:06;;;;;;;;;;;;;;;;;;4920376;29;8375;-82
2022/10/30 07:17:31;;;;;;;;;;;;;;;;;;4920687;29;6990;-83
2022/10/30 07:19:57;;;;;;;;;;;;;;;;;;4922084;29;7330;-87
2022/10/30 07:22:26;;;;;;;;;;;;;;;;;;4925820;29;7071;-82
2022/10/30 07:24:52;;;;;;;;;;;;;;;;;;4934227;29;7243;-81
2022/10/30 07:27:17;;;;;;;;;;;;;;;;;;4926368;29;6995;-83
2022/10/30 07:29:43;;;;;;;;;;;;;;;;;;4929618;29;7143;-84
2022/10/30 07:32:12;;;;;;;;;;;;;;;;;;4937889;29;8311;-83
2022/10/30 07:34:37;;;;;;;;;;;;;;;;;;4929630;29;8128;-88
2022/10/30 07:37:03;;;;;;;;;;;;;;;;;;4948228;29;7001;-84
2022/10/30 07:39:29;;;;;;;;;;;;;;;;;;4933587;29;8378;-88
2022/10/30 07:41:54;;;;;;;;;;;;;;;;;;4929752;29;6801;-90
2022/10/30 07:44:20;;;;;;;;;;;;;;;;;;4929581;29;8313;-87
2022/10/30 07:46:45;;;;;;;;;;;;;;;;;;4924779;29;8712;-86
2022/10/30 07:49:11;;;;;;;;;;;;;;;;;;4920673;29;8361;-85
2022/10/30 07:51:37;;;;;;;;;;;;;;;;;;4927093;29;7021;-89
2022/10/30 07:54:06;;;;;;;;;;;;;;;;;;4924473;29;7280;-88
2022/10/30 07:56:31;;;;;;;;;;;;;;;;;;4923558;29;7433;-86
2022/10/30 07:58:57;;;;;;;;;;;;;;;;;;4925837;29;7081;-85
2022/10/30 08:01:22;;;;;;;;;;;;;;;;;;4923708;29;9063;-83
2022/10/30 08:03:51;;;;;;;;;;;;;;;;;;4922459;29;6885;-85
2022/10/30 08:06:17;;;;;;;;;;;;;;;;;;4923148;29;6950;-90
2022/10/30 08:08:42;;;;;;;;;;;;;;;;;;4922790;29;7485;-86
2022/10/30 08:11:08;;;;;;;;;;;;;;;;;;4920189;29;8454;-86
2022/10/30 08:13:33;;;;;;;;;;;;;;;;;;4919718;29;7144;-85
2022/10/30 08:15:59;;;;;;;;;;;;;;;;;;4920567;29;8366;-86
2022/10/30 08:18:25;;;;;;;;;;;;;;;;;;4920898;29;8382;-87
2022/10/30 08:20:50;;;;;;;;;;;;;;;;;;4920506;29;8458;-87
2022/10/30 08:23:18;;;;;;;;;;;;;;;;;;4920189;29;7037;-85
2022/10/30 08:25:44;;;;;;;;;;;;;;;;;;4920143;29;8426;-86
2022/10/30 08:28:10;;;;;;;;;;;;;;;;;;4920593;29;7047;-88
2022/10/30 08:30:37;;;;;;;;;;;;;;;;;;4919587;29;8305;-88
2022/10/30 08:33:05;;;;;;;;;;;;;;;;;;4920204;29;7074;-86
2022/10/30 08:35:31;;;;;;;;;;;;;;;;;;4937196;29;7014;-87
2022/10/30 08:37:58;;;;;;;;;;;;;;;;;;4919866;29;7035;-88
2022/10/30 08:40:25;;;;;;;;;;;;;;;;;;4919965;29;6975;-87
2022/10/30 08:42:52;;;;;;;;;;;;;;;;;;4921152;29;7357;-83
2022/10/30 08:45:18;;;;;;;;;;;;;;;;;;4923598;29;8393;-86
2022/10/30 08:47:43;;;;;;;;;;;;;;;;;;4922423;29;7252;-85
2022/10/30 08:50:09;;;;;;;;;;;;;;;;;;4923534;29;8742;-88
2022/10/30 08:52:34;;;;;;;;;;;;;;;;;;4923332;29;7112;-88
2022/10/30 08:55:00;;;;;;;;;;;;;;;;;;4923649;29;7006;-87
2022/10/30 08:57:26;;;;;;;;;;;;;;;;;;4923209;29;7196;-87
2022/10/30 08:59:52;;;;;;;;;;;;;;;;;;4922950;29;8598;-87
2022/10/30 09:02:17;;;;;;;;;;;;;;;;;;4922360;29;6988;-87
2022/10/30 09:04:42;;;;;;;;;;;;;;;;;;4922695;29;7824;-87
2022/10/30 09:07:08;;;;;;;;;;;;;;;;;;4922793;29;7240;-87
2022/10/30 09:09:33;;;;;;;;;;;;;;;;;;4923804;29;8380;-87
2022/10/30 09:11:59;;;;;;;;;;;;;;;;;;4925916;29;6975;-88
2022/10/30 09:14:25;;;;;;;;;;;;;;;;;;4925444;29;6877;-84
2022/10/30 09:16:50;;;;;;;;;;;;;;;;;;4926087;29;6971;-83
2022/10/30 09:19:16;;;;;;;;;;;;;;;;;;4925945;29;7018;-89
2022/10/30 09:21:41;;;;;;;;;;;;;;;;;;4924813;29;7137;-86
2022/10/30 09:24:07;;;;;;;;;;;;;;;;;;4924143;29;8493;-88
2022/10/30 09:26:32;;;;;;;;;;;;;;;;;;4923922;29;8424;-87
2022/10/30 09:28:58;;;;;;;;;;;;;;;;;;4921794;29;9323;-86
2022/10/30 09:31:23;;;;;;;;;;;;;;;;;;4922021;29;7153;-86
2022/10/30 09:33:49;;;;;;;;;;;;;;;;;;4922121;29;8380;-86
2022/10/30 09:36:14;;;;;;;;;;;;;;;;;;4923413;29;7089;-88
2022/10/30 09:38:39;;;;;;;;;;;;;;;;;;4923099;29;7168;-87
2022/10/30 09:41:12;;;;;;;;;;;;;;;;;;4922899;29;7398;-86
2022/10/30 09:43:51;;;;;;;;;;;;;;;;;;4938157;29;6999;-88
2022/10/30 09:46:35;;;;;;;;;;;;;;;;;;4922600;29;7175;-86
2022/10/30 09:49:15;;;;;;;;;;;;;;;;;;4938138;29;7994;-89
2022/10/30 09:51:47;;;;;;;;;;;;;;;;;;4923028;29;8471;-88
2022/10/30 09:54:35;;;;;;;;;;;;;;;;;;4937647;29;8405;-88
2022/10/30 09:57:18;;;;;;;;;;;;;;;;;;4938340;29;7173;-88
2022/10/30 10:00:00;;;;;;;;;;;;;;;;;;4922386;29;8408;-86
2022/10/30 10:02:28;;;;;;;;;;;;;;;;;;4922056;29;7269;-86
2022/10/30 10:04:58;;;;;;;;;;;;;;;;;;4937115;29;7058;-87
2022/10/30 10:07:39;;;;;;;;;;;;;;;;;;4922546;29;8454;-87
2022/10/30 10:10:09;;;;;;;;;;;;;;;;;;4921699;29;8572;-85
2022/10/30 10:12:46;;;;;;;;;;;;;;;;;;4921152;29;8922;-84
2022/10/30 10:15:35;;;;;;;;;;;;;;;;;;4921667;29;7094;-84
2022/10/30 10:18:05;;;;;;;;;;;;;;;;;;4921374;29;8664;-82
2022/10/30 10:20:41;;;;;;;;;;;;;;;;;;4920532;29;7143;-85
2022/10/30 10:23:16;;;;;;;;;;;;;;;;;;4920844;29;7134;-87
2022/10/30 10:25:50;;;;;;;;;;;;;;;;;;4919563;29;8422;-85
2022/10/30 10:28:34;;;;;;;;;;;;;;;;;;4896710;29;8427;-86
2022/10/30 10:31:19;;;;;;;;;;;;;;;;;;4915881;29;7219;-85
2022/10/30 10:33:58;;;;;;;;;;;;;;;;;;4899236;29;7189;-84
2022/10/30 10:36:38;;;;;;;;;;;;;;;;;;4898002;29;7033;-85
2022/10/30 10:39:17;;;;;;;;;;;;;;;;;;4903144;29;7075;-83
2022/10/30 10:42:04;;;;;;;;;;;;;;;;;;4915669;29;7295;-84
2022/10/30 10:44:41;;;;;;;;;;;;;;;;;;4916707;29;8379;-87
2022/10/30 10:47:26;;;;;;;;;;;;;;;;;;4916063;29;8353;-85
2022/10/30 10:49:51;;;;;;;;;;;;;;;;;;4938160;29;8447;-88
2022/10/30 10:52:23;;;;;;;;;;;;;;;;;;4943786;29;7161;-87
2022/10/30 10:55:01;;;;;;;;;;;;;;;;;;4926628;29;8422;-82
2022/10/30 10:57:36;;;;;;;;;;;;;;;;;;4933907;29;7055;-85
2022/10/30 11:00:06;;;;;;;;;;;;;;;;;;4928856;29;7228;-89
2022/10/30 11:02:39;;;;;;;;;;;;;;;;;;4915727;29;7530;-82
2022/10/30 11:05:17;;;;;;;;;;;;;;;;;;4923382;29;8580;-82
2022/10/30 11:07:49;;;;;;;;;;;;;;;;;;4921798;29;7400;-86
2022/10/30 11:10:16;;;;;;;;;;;;;;;;;;4920074;29;7172;-88
2022/10/30 11:12:42;;;;;;;;;;;;;;;;;;4921499;29;8467;-87
2022/10/30 11:15:32;;;;;;;;;;;;;;;;;;4919867;29;8340;-86
2022/10/30 11:18:00;;;;;;;;;;;;;;;;;;4919651;29;8723;-87
2022/10/30 11:20:35;;;;;;;;;;;;;;;;;;4928828;29;8701;-81
2022/10/30 11:23:00;;;;;;;;;;;;;;;;;;4950626;28;8806;-85
2022/10/30 11:25:32;;;;;;;;;;;;;;;;;;4934248;29;8542;-87
2022/10/30 11:27:59;;;;;;;;;;;;;;;;;;4922072;29;7243;-88
2022/10/30 11:30:30;;;;;;;;;;;;;;;;;;4922612;29;6918;-83
2022/10/30 11:32:57;;;;;;;;;;;;;;;;;;4922298;29;8585;-85
2022/10/30 11:35:25;;;;;;;;;;;;;;;;;;4923317;29;7176;-83
2022/10/30 11:38:11;;;;;;;;;;;;;;;;;;4922078;29;7104;-85
2022/10/30 11:40:36;;;;;;;;;;;;;;;;;;4920993;29;7102;-85
2022/10/30 11:43:03;;;;;;;;;;;;;;;;;;4915455;29;6874;-82
2022/10/30 11:45:39;;;;;;;;;;;;;;;;;;4899232;29;7248;-84
2022/10/30 11:48:10;;;;;;;;;;;;;;;;;;4914525;29;8494;-87
2022/10/30 11:50:37;;;;;;;;;;;;;;;;;;4921455;29;7098;-88
2022/10/30 11:53:19;;;;;;;;;;;;;;;;;;4920090;29;7191;-86
2022/10/30 11:55:46;;;;;;;;;;;;;;;;;;4919039;29;7191;-87
2022/10/30 11:58:47;;;;;;;;;;;;;;;;;;4919311;29;8490;-87
2022/10/30 12:01:22;;;;;;;;;;;;;;;;;;4840976;29;8562;-87
2022/10/30 12:03:48;;;;;;;;;;;;;;;;;;4838862;29;7165;-85
2022/10/30 12:06:19;;;;;;;;;;;;;;;;;;4840333;29;7106;-84
2022/10/30 12:08:59;;;;;;;;;;;;;;;;;;4836884;29;8505;-85
2022/10/30 12:11:34;;;;;;;;;;;;;;;;;;4834463;29;8739;-84
2022/10/30 12:14:01;;;;;;;;;;;;;;;;;;4839271;29;8368;-88
2022/10/30 12:16:27;;;;;;;;;;;;;;;;;;4824671;29;8825;-88
2022/10/30 12:18:58;;;;;;;;;;;;;;;;;;4828951;29;8459;-86
2022/10/30 12:21:26;;;;;;;;;;;;;;;;;;4846563;29;7277;-85
2022/10/30 12:23:57;;;;;;;;;;;;;;;;;;4834976;29;6939;-87
2022/10/30 12:26:25;;;;;;;;;;;;;;;;;;4828999;29;7218;-87
2022/10/30 12:28:54;;;;;;;;;;;;;;;;;;4833220;29;7897;-80
2022/10/30 12:31:25;;;;;;;;;;;;;;;;;;4835506;29;8509;-88
2022/10/30 12:34:09;;;;;;;;;;;;;;;;;;4832149;29;8481;-87
2022/10/30 12:36:42;;;;;;;;;;;;;;;;;;4939771;29;7210;-89
2022/10/30 12:39:20;;;;;;;;;;;;;;;;;;4907663;29;8724;-85
2022/10/30 12:41:57;;;;;;;;;;;;;;;;;;4908638;29;7087;-83
2022/10/30 12:44:31;;;;;;;;;;;;;;;;;;4908317;29;8858;-86
2022/10/30 12:47:16;;;;;;;;;;;;;;;;;;4910644;29;8477;-85
2022/10/30 12:49:55;;;;;;;;;;;;;;;;;;4925932;29;7025;-87
2022/10/30 12:52:29;;;;;;;;;;;;;;;;;;4925053;29;8728;-85
2022/10/30 12:55:04;;;;;;;;;;;;;;;;;;4926896;29;8469;-85
2022/10/30 12:57:36;;;;;;;;;;;;;;;;;;4926514;29;8533;-84
2022/10/30 13:00:13;;;;;;;;;;;;;;;;;;4927827;29;7303;-85
2022/10/30 13:02:39;;;;;;;;;;;;;;;;;;4926268;29;8873;-88
2022/10/30 13:05:13;;;;;;;;;;;;;;;;;;4942887;29;7203;-82
2022/10/30 13:07:45;;;;;;;;;;;;;;;;;;4925838;29;7195;-85
2022/10/30 13:10:20;;;;;;;;;;;;;;;;;;4923099;29;8513;-87
2022/10/30 13:12:51;;;;;;;;;;;;;;;;;;4938133;29;7313;-85
2022/10/30 13:15:16;;;;;;;;;;;;;;;;;;4922168;29;8911;-87
2022/10/30 13:17:42;;;;;;;;;;;;;;;;;;4936006;29;8500;-86
2022/10/30 13:20:13;;;;;;;;;;;;;;;;;;4903151;29;7066;-87
2022/10/30 13:22:47;;;;;;;;;;;;;;;;;;4903072;29;8421;-86
2022/10/30 13:25:13;;;;;;;;;;;;;;;;;;4918848;29;8505;-87
2022/10/30 13:27:41;;;;;;;;;;;;;;;;;;4918868;29;7377;-84
2022/10/30 13:30:14;;;;;;;;;;;;;;;;;;4918974;29;7062;-87
2022/10/30 13:33:05;;;;;;;;;;;;;;;;;;4903201;29;8437;-87
2022/10/30 13:35:46;;;;;;;;;;;;;;;;;;4911148;29;7383;-88
2022/10/30 13:38:11;;;;;;;;;;;;;;;;;;4937702;29;7200;-87
2022/10/30 13:40:37;;;;;;;;;;;;;;;;;;4937619;29;8448;-86
2022/10/30 13:43:02;;;;;;;;;;;;;;;;;;4936988;29;8547;-85
2022/10/30 13:45:27;;;;;;;;;;;;;;;;;;4936949;29;8415;-86
2022/10/30 13:48:15;;;;;;;;;;;;;;;;;;4942190;28;8447;-84
2022/10/30 13:50:59;;;;;;;;;;;;;;;;;;4917701;29;7122;-86
2022/10/30 13:53:27;;;;;;;;;;;;;;;;;;4917610;29;7215;-87
2022/10/30 13:55:55;;;;;;;;;;;;;;;;;;4902040;29;8365;-87
2022/10/30 13:58:39;;;;;;;;;;;;;;;;;;4902833;29;7224;-87
2022/10/30 14:01:24;;;;;;;;;;;;;;;;;;4918108;29;7079;-87
2022/10/30 14:03:55;;;;;;;;;;;;;;;;;;4900340;29;8451;-84
2022/10/30 14:06:40;;;;;;;;;;;;;;;;;;4916689;29;8840;-86
2022/10/30 14:09:20;;;;;;;;;;;;;;;;;;4901646;29;8416;-84
2022/10/30 14:11:46;;;;;;;;;;;;;;;;;;4901338;29;7293;-86
2022/10/30 14:14:31;;;;;;;;;;;;;;;;;;4902215;29;7046;-86
2022/10/30 14:17:08;;;;;;;;;;;;;;;;;;4901433;29;8482;-86
2022/10/30 14:19:53;;;;;;;;;;;;;;;;;;4901213;29;7100;-85
2022/10/30 14:22:24;;;;;;;;;;;;;;;;;;4917761;29;8525;-87
2022/10/30 14:24:49;;;;;;;;;;;;;;;;;;4918527;29;8495;-82
2022/10/30 14:27:25;;;;;;;;;;;;;;;;;;4917675;29;8709;-87
2022/10/30 14:29:51;;;;;;;;;;;;;;;;;;4915980;29;7199;-86
2022/10/30 14:32:17;;;;;;;;;;;;;;;;;;4920160;29;7677;-86
2022/10/30 14:34:44;;;;;;;;;;;;;;;;;;4935028;29;7153;-87
2022/10/30 14:37:11;;;;;;;;;;;;;;;;;;4920412;29;8520;-87
2022/10/30 14:39:41;;;;;;;;;;;;;;;;;;4919418;29;7074;-83
2022/10/30 14:42:14;;;;;;;;;;;;;;;;;;4920552;29;8467;-87
2022/10/30 14:44:58;;;;;;;;;;;;;;;;;;4919904;29;8551;-87
2022/10/30 14:47:23;;;;;;;;;;;;;;;;;;4936421;29;8730;-85
2022/10/30 14:49:49;;;;;;;;;;;;;;;;;;4936307;29;7139;-86
2022/10/30 14:52:42;;;;;;;;;;;;;;;;;;4936539;29;8517;-87
2022/10/30 14:55:27;;;;;;;;;;;;;;;;;;4919924;29;8464;-84
2022/10/30 14:57:52;;;;;;;;;;;;;;;;;;4936958;29;7178;-84
2022/10/30 15:00:20;;;;;;;;;;;;;;;;;;4936290;29;7258;-82
2022/10/30 15:03:01;;;;;;;;;;;;;;;;;;4936637;29;8432;-82
2022/10/30 15:05:45;;;;;;;;;;;;;;;;;;4936687;29;8456;-83
2022/10/30 15:08:19;;;;;;;;;;;;;;;;;;4920847;29;7261;-82
2022/10/30 15:10:57;;;;;;;;;;;;;;;;;;4936746;29;7095;-83
2022/10/30 15:13:22;;;;;;;;;;;;;;;;;;4936453;29;7108;-83
2022/10/30 15:16:03;;;;;;;;;;;;;;;;;;4920499;29;8528;-83
2022/10/30 15:18:29;;;;;;;;;;;;;;;;;;4920177;29;8792;-83
2022/10/30 15:21:00;;;;;;;;;;;;;;;;;;4920436;29;8408;-82
2022/10/30 15:23:29;;;;;;;;;;;;;;;;;;4921003;29;9085;-83
2022/10/30 15:25:58;;;;;;;;;;;;;;;;;;4918745;29;7109;-86
2022/10/30 15:28:29;;;;;;;;;;;;;;;;;;4920642;29;7197;-86
2022/10/30 15:31:01;;;;;;;;;;;;;;;;;;4920248;29;7075;-84
2022/10/30 15:33:26;;;;;;;;;;;;;;;;;;4936546;29;8502;-86
2022/10/30 15:35:52;;;;;;;;;;;;;;;;;;4920361;29;8650;-86
2022/10/30 15:38:17;;;;;;;;;;;;;;;;;;4920775;29;7189;-86
2022/10/30 15:40:43;;;;;;;;;;;;;;;;;;4936464;29;7065;-88
2022/10/30 15:43:12;;;;;;;;;;;;;;;;;;4920230;29;8410;-86
2022/10/30 15:45:44;;;;;;;;;;;;;;;;;;4919656;29;9424;-86
2022/10/30 15:48:27;;;;;;;;;;;;;;;;;;4920234;29;8512;-86
2022/10/30 15:51:13;;;;;;;;;;;;;;;;;;4920234;29;7273;-87
2022/10/30 15:53:42;;;;;;;;;;;;;;;;;;4923369;29;8448;-84
2022/10/30 15:56:15;;;;;;;;;;;;;;;;;;4939384;29;8413;-86
2022/10/30 15:58:41;;;;;;;;;;;;;;;;;;4923786;29;7051;-86
2022/10/30 16:01:22;;;;;;;;;;;;;;;;;;4923833;29;8776;-86
2022/10/30 16:03:52;;;;;;;;;;;;;;;;;;4924133;29;8457;-86
2022/10/30 16:06:19;;;;;;;;;;;;;;;;;;4922302;29;7393;-86
2022/10/30 16:08:46;;;;;;;;;;;;;;;;;;4922765;29;8474;-85
2022/10/30 16:11:13;;;;;;;;;;;;;;;;;;4923324;29;7243;-85
2022/10/30 16:13:40;;;;;;;;;;;;;;;;;;4922600;29;8776;-86
2022/10/30 16:16:10;;;;;;;;;;;;;;;;;;4922203;29;7048;-86
2022/10/30 16:18:37;;;;;;;;;;;;;;;;;;4922176;29;7282;-86
2022/10/30 16:21:06;;;;;;;;;;;;;;;;;;4923318;29;8872;-86
2022/10/30 16:23:41;;;;;;;;;;;;;;;;;;4923986;29;7141;-86
2022/10/30 16:26:21;;;;;;;;;;;;;;;;;;4923617;29;8392;-87
2022/10/30 16:28:47;;;;;;;;;;;;;;;;;;4923611;29;7186;-84
2022/10/30 16:31:14;;;;;;;;;;;;;;;;;;4923408;29;7610;-88
2022/10/30 16:33:43;;;;;;;;;;;;;;;;;;4923575;29;7186;-86
2022/10/30 16:36:15;;;;;;;;;;;;;;;;;;4923254;29;7184;-84
2022/10/30 16:38:42;;;;;;;;;;;;;;;;;;4922796;29;8494;-86
2022/10/30 16:41:12;;;;;;;;;;;;;;;;;;4923456;29;7453;-85
2022/10/30 16:43:39;;;;;;;;;;;;;;;;;;4922976;29;8110;-87
2022/10/30 16:46:14;;;;;;;;;;;;;;;;;;4923032;29;7153;-85
2022/10/30 16:49:00;;;;;;;;;;;;;;;;;;4950788;28;8716;-86
2022/10/30 16:51:26;;;;;;;;;;;;;;;;;;4937918;29;7540;-86
2022/10/30 16:53:52;;;;;;;;;;;;;;;;;;4938992;29;8484;-87
2022/10/30 16:56:23;;;;;;;;;;;;;;;;;;4939229;29;8117;-86
2022/10/30 16:58:51;;;;;;;;;;;;;;;;;;4938935;29;7217;-85
2022/10/30 17:01:17;;;;;;;;;;;;;;;;;;4938869;29;8426;-86
2022/10/30 17:03:43;;;;;;;;;;;;;;;;;;4937290;29;6912;-88
2022/10/30 17:06:27;;;;;;;;;;;;;;;;;;4938716;29;7082;-86
2022/10/30 17:08:57;;;;;;;;;;;;;;;;;;4938963;29;7246;-88
2022/10/30 17:11:42;;;;;;;;;;;;;;;;;;4938616;29;7087;-85
2022/10/30 17:14:19;;;;;;;;;;;;;;;;;;4937570;29;9470;-85
2022/10/30 17:16:55;;;;;;;;;;;;;;;;;;4938697;29;7052;-86
2022/10/30 17:19:29;;;;;;;;;;;;;;;;;;4938564;29;7173;-87
2022/10/30 17:21:57;;;;;;;;;;;;;;;;;;4938618;29;8735;-86
2022/10/30 17:24:29;;;;;;;;;;;;;;;;;;4938655;29;8397;-86